Latest Coastal Weather Observations for Robe Airport

IDS60701

Issued at 10:21 am CDT Sunday 4 December 2016 (issued every 10 minutes, with the page automatically refreshed every 10 minutes)

About coastal observations | Map of coastal stations | Coastal observations for SA | Marine services | Other Formats
Station Details ID: 026105 Name: ROBE AIRFIELD Lat: -37.18 Lon: 139.81 Height: 3.0 m
Data from the previous 72 hours. | See also: Recent months at Robe Airport
Date/Time
CDT
Temp
°C
Wind Pressure Rain since
9am
mm
Weather Cloud Vis
km
Sea
Height
m
Swell
Dir  Spd
kts
Gust
kts
hPa Trend Height
m
Period
s
Dir
04/10:00am 24.8 N 10 15 1006.2 - 0.0 - - - - - - -
04/09:30am 21.5 NNE 7 9 1005.8 - 0.0 - - - - - - -
04/09:00am 19.7 NE 7 10 1006.3 - 0.0 - - - - - - -
04/08:30am 18.4 NE 6 8 1006.8 - 0.0 - - - - - - -
04/08:00am 15.3 NE 5 7 1006.7 - 0.0 - - - - - - -
04/07:30am 13.7 ESE 2 3 1006.9 - 0.0 - - - - - - -
04/07:00am 12.4 ENE 3 4 1007.4 - 0.0 - - - - - - -
04/06:30am 11.1 E 1 2 1007.5 - 0.0 - - - - - - -
04/06:00am 10.4 E 1 2 1007.8 - 0.0 - - - - - - -
04/05:30am 10.4 E 3 4 1007.7 - 0.0 - - - - - - -
04/05:00am 10.2 ESE 3 5 1007.8 - 0.0 - - - - - - -
04/04:30am 10.0 E 3 3 1008.1 - 0.0 - - - - - - -
04/04:00am 10.4 E 4 5 1008.4 - 0.0 - - - - - - -
04/03:30am 10.5 ESE 3 5 1008.8 - 0.0 - - - - - - -
04/03:00am 10.4 ESE 3 3 1008.8 - 0.0 - - - - - - -
04/02:30am 10.9 SE 4 6 1009.5 - 0.0 - - - - - - -
04/02:00am 10.6 SE 4 6 1009.7 - 0.0 - - - - - - -
04/01:30am 10.8 SE 4 5 1010.0 - 0.0 - - - - - - -
04/01:00am 10.6 ESE 4 6 1010.4 - 0.0 - - - - - - -
04/12:30am 10.5 SE 3 5 1010.9 - 0.0 - - - - - - -
04/12:00am 11.1 SE 3 4 1011.3 - 0.0 - - - - - - -
 
Date/Time
CDT
Temp
°C
Wind Pressure Rain since
9am
mm
Weather Cloud Vis
km
Sea
Height
m
Swell
Dir  Spd
kts
Gust
kts
hPa Trend Height
m
Period
s
Dir
03/11:30pm 12.3 SE 6 8 1011.6 - 0.0 - - - - - - -
03/11:00pm 13.2 SE 8 11 1012.0 - 0.0 - - - - - - -
03/10:30pm 13.9 SE 8 12 1012.2 - 0.0 - - - - - - -
03/10:00pm 13.7 SSE 7 11 1012.5 - 0.0 - - - - - - -
03/09:30pm 12.7 S 6 7 1012.5 - 0.0 - - - - - - -
03/09:00pm 13.3 S 7 10 1012.5 - 0.0 - - - - - - -
03/08:30pm 13.9 SSE 8 11 1012.3 - 0.0 - - - - - - -
03/08:00pm 14.8 S 8 11 1012.5 - 0.0 - - - - - - -
03/07:30pm 16.2 SSE 10 14 1012.2 - 0.0 - - - - - - -
03/07:00pm 16.9 S 10 15 1012.2 - 0.0 - - - - - - -
03/06:30pm 17.9 SSE 10 14 1012.3 - 0.0 - - - - - - -
03/06:00pm 18.1 SSE 12 16 1012.2 - 0.0 - - - - - - -
03/05:30pm 18.6 S 11 14 1012.5 - 0.0 - - - - - - -
03/05:00pm 18.4 S 11 15 1013.1 - 0.0 - - - - - - -
03/04:30pm 18.6 S 11 14 1013.4 - 0.0 - - - - - - -
03/04:00pm 18.6 S 10 14 1013.5 - 0.0 - - - - - - -
03/03:30pm 18.1 SSW 12 15 1013.8 - 0.0 - - - - - - -
03/03:00pm 18.6 SSW 10 15 1013.8 - 0.0 - - - - - - -
03/02:30pm 19.1 SSW 11 14 1013.9 - 0.0 - - - - - - -
03/02:00pm 18.6 SSW 10 13 1014.2 - 0.0 - - - - - - -
03/01:30pm 18.6 SSW 10 14 1014.5 - 0.0 - - - - - - -
03/01:00pm 18.6 SSW 11 15 1014.6 - 0.0 - - - - - - -
03/12:30pm 18.8 SSW 9 15 1014.6 - 0.0 - - - - - - -
03/12:00pm 19.1 SE 6 12 1014.9 - 0.0 - - - - - - -
03/11:30am 18.3 SE 5 11 1015.2 - 0.0 - - - - - - -
03/11:00am 18.8 E 4 10 1015.6 - 0.0 - - - - - - -
03/10:30am 17.5 NE 4 7 1015.9 - 0.0 - - - - - - -
03/10:00am 16.7 ESE 5 8 1016.0 - 0.0 - - - - - - -
03/09:30am 15.8 ENE 5 7 1016.2 - 0.0 - - - - - - -
03/09:00am 15.9 E 5 9 1016.4 - 0.0 - - - - - - -
03/08:30am 14.8 ENE 6 8 1016.4 - 0.0 - - - - - - -
03/08:00am 13.2 ENE 4 6 1016.2 - 0.0 - - - - - - -
03/07:30am 11.4 CALM 0 1 1016.0 - 0.0 - - - - - - -
03/07:00am 8.7 CALM 0 2 1015.8 - 0.0 - - - - - - -
03/06:30am 6.1 SE 1 1 1015.6 - 0.0 - - - - - - -
03/06:00am 3.6 CALM 0 0 1015.3 - 0.0 - - - - - - -
03/05:30am 3.5 CALM 0 0 1014.9 - 0.0 - - - - - - -
03/05:00am 4.0 CALM 0 0 1014.7 - 0.0 - - - - - - -
03/04:30am 5.1 CALM 0 0 1014.5 - 0.0 - - - - - - -
03/04:00am 4.8 CALM 0 0 1014.6 - 0.0 - - - - - - -
03/03:30am 4.9 SE 2 3 1014.6 - 0.0 - - - - - - -
03/03:00am 6.3 CALM 0 0 1014.7 - 0.0 - - - - - - -
03/02:30am 6.3 CALM 0 0 1014.9 - 0.0 - - - - - - -
03/02:00am 8.7 S 4 5 1015.2 - 0.0 - - - - - - -
03/01:30am 8.8 S 4 6 1015.5 - 0.0 - - - - - - -
03/01:00am 8.1 S 3 5 1015.7 - 0.0 - - - - - - -
03/12:30am 8.1 SSE 2 4 1016.3 - 0.0 - - - - - - -
03/12:00am 9.8 S 3 4 1016.6 - 0.0 - - - - - - -
 
Date/Time
CDT
Temp
°C
Wind Pressure Rain since
9am
mm
Weather Cloud Vis
km
Sea
Height
m
Swell
Dir  Spd
kts
Gust
kts
hPa Trend Height
m
Period
s
Dir
02/11:30pm 9.8 S 4 5 1016.4 - 0.0 - - - - - - -
02/11:00pm 9.8 S 4 4 1016.6 - 0.0 - - - - - - -
02/10:30pm 10.5 S 3 4 1016.8 - 0.0 - - - - - - -
02/10:00pm 10.2 S 2 3 1016.7 - 0.0 - - - - - - -
02/09:30pm 10.9 S 3 5 1016.7 - 0.0 - - - - - - -
02/09:00pm 11.3 S 2 3 1016.6 - 0.0 - - - - - - -
02/08:30pm 11.8 SSE 5 8 1016.3 - 0.0 - - - - - - -
02/08:00pm 13.1 S 6 9 1016.3 - 0.0 - - - - - - -
02/07:30pm 14.2 SSW 6 8 1016.1 - 0.0 - - - - - - -
02/07:00pm 15.1 SSW 7 10 1015.8 - 0.0 - - - - - - -
02/06:30pm 15.6 SSW 8 11 1015.7 - 0.0 - - - - - - -
02/06:00pm 15.7 SSW 8 13 1015.5 - 0.0 - - - - - - -
02/05:30pm 16.3 S 9 13 1015.4 - 0.0 - - - - - - -
02/05:00pm 16.3 SSW 8 13 1015.4 - 0.0 - - - - - - -
02/04:30pm 16.3 SSW 8 13 1015.4 - 0.0 - - - - - - -
02/04:00pm 16.8 SSW 8 14 1015.3 - 0.0 - - - - - - -
02/03:30pm 16.9 SW 8 13 1015.4 - 0.0 - - - - - - -
02/03:00pm 16.8 S 9 15 1015.3 - 0.0 - - - - - - -
02/02:30pm 16.9 SSW 7 20 1015.3 - 0.0 - - - - - - -
02/02:00pm 16.8 SSW 8 15 1015.1 - 0.0 - - - - - - -
02/01:30pm 17.2 SSW 8 13 1015.3 - 0.0 - - - - - - -
02/01:00pm 17.4 SSW 9 15 1015.1 - 0.0 - - - - - - -
02/12:30pm 16.8 SSW 10 15 1015.1 - 0.0 - - - - - - -
02/12:00pm 17.1 SSW 9 15 1015.1 - 0.0 - - - - - - -
02/11:30am 16.6 SSW 10 18 1014.8 - 0.0 - - - - - - -
02/11:00am 16.3 SSW 9 13 1014.6 - 0.0 - - - - - - -
02/10:30am 15.4 SW 9 15 1014.3 - 0.0 - - - - - - -
02/10:00am 16.0 SSW 9 14 1014.2 - 0.0 - - - - - - -
02/09:30am 15.8 SW 9 13 1014.1 - 0.0 - - - - - - -
02/09:00am 15.4 SW 9 14 1014.0 - 0.0 - - - - - - -
02/08:30am 15.1 SW 10 14 1013.6 - 0.0 - - - - - - -
02/08:00am 15.5 SW 10 14 1013.1 - 0.0 - - - - - - -
02/07:30am 14.3 SSW 10 16 1012.7 - 0.0 - - - - - - -
02/07:00am 14.4 SSW 6 9 1012.1 - 0.0 - - - - - - -
02/06:30am 13.7 SW 6 9 1011.7 - 0.0 - - - - - - -
02/06:00am 13.8 SSW 6 12 1011.4 - 0.0 - - - - - - -
02/05:30am 13.8 SSW 7 11 1010.9 - 0.0 - - - - - - -
02/05:00am 13.7 SSW 7 11 1010.4 - 0.0 - - - - - - -
02/04:30am 13.7 SSW 8 12 1010.0 - 0.0 - - - - - - -
02/04:00am 13.7 SSW 9 17 1009.7 - 0.0 - - - - - - -
02/03:30am 14.8 WSW 5 8 1009.2 - 0.0 - - - - - - -
02/03:00am 14.3 WSW 5 9 1009.1 - 0.0 - - - - - - -
02/02:30am 13.8 WSW 4 6 1009.0 - 0.0 - - - - - - -
02/02:00am 13.8 WSW 4 8 1009.0 - 0.0 - - - - - - -
02/01:30am 13.3 W 4 5 1009.3 - 0.0 - - - - - - -
02/01:00am 13.0 WSW 4 6 1009.2 - 0.0 - - - - - - -
02/12:30am 12.7 W 3 4 1009.3 - 0.0 - - - - - - -
02/12:00am 13.1 WSW 3 6 1009.4 - 0.0 - - - - - - -
 
Date/Time
CDT
Temp
°C
Wind Pressure Rain since
9am
mm
Weather Cloud Vis
km
Sea
Height
m
Swell
Dir  Spd
kts
Gust
kts
hPa Trend Height
m
Period
s
Dir
01/11:30pm 12.8 W 3 6 1009.6 - 0.0 - - - - - - -
01/11:00pm 12.6 W 3 4 1009.7 - 0.0 - - - - - - -
01/10:30pm 12.7 W 3 4 1009.8 - 0.0 - - - - - - -
01/10:00pm 12.8 W 3 5 1009.6 - 0.0 - - - - - - -
01/09:30pm 12.7 W 3 4 1009.6 - 0.0 - - - - - - -
01/09:00pm 12.8 W 3 3 1009.3 - 0.0 - - - - - - -
01/08:30pm 13.8 WSW 2 3 1009.0 - 0.0 - - - - - - -
01/08:00pm 14.8 WSW 4 8 1008.6 - 0.0 - - - - - - -
01/07:30pm 15.9 WSW 5 8 1008.7 - 0.0 - - - - - - -
01/07:00pm 16.2 WSW 7 11 1008.5 - 0.0 - - - - - - -
01/06:30pm 16.8 SW 7 11 1008.2 - 0.0 - - - - - - -
01/06:00pm 17.5 WSW 8 14 1008.0 - 0.0 - - - - - - -
01/05:30pm 17.6 WSW 8 17 1008.0 - 0.0 - - - - - - -
01/05:00pm 17.9 W 7 13 1008.1 - 0.0 - - - - - - -
01/04:30pm 18.3 WNW 10 14 1008.6 - 0.0 - - - - - - -
01/04:00pm 18.2 WNW 11 15 1008.6 - 0.0 - - - - - - -
01/03:30pm 17.8 WNW 14 20 1008.6 - 0.0 - - - - - - -
01/03:00pm 18.5 WNW 11 17 1008.4 - 0.0 - - - - - - -
01/02:30pm 18.3 WNW 11 18 1008.1 - 0.0 - - - - - - -
01/02:00pm 17.9 WNW 8 13 1007.7 - 0.0 - - - - - - -
01/01:30pm 18.3 NW 11 14 1007.9 - 0.0 - - - - - - -
01/01:00pm 17.7 NW 10 12 1007.9 - 0.0 - - - - - - -
01/12:30pm 18.3 NW 8 12 1008.2 - 0.0 - - - - - - -
01/12:00pm 18.9 NW 6 11 1007.9 - 0.0 - - - - - - -
01/11:30am 18.2 NW 3 5 1008.4 - 0.0 - - - - - - -
01/11:00am 18.0 WNW 8 11 1009.2 - 0.0 - - - - - - -
01/10:30am 16.7 NW 3 9 1009.2 - 0.0 - - - - - - -

Other Formats:

Comma delimited format used in spreadsheet applications
http://www.bom.gov.au/fwo/IDS60701/IDS60701.95816.axf

JavaScript Object Notation format (JSON) in row-major order
http://www.bom.gov.au/fwo/IDS60701/IDS60701.95816.json